createdAt,value
2022-10-28T00:01:49.625Z,12.83
2022-10-28T00:04:20.245Z,12.80
2022-10-28T00:06:55.257Z,13.20
2022-10-28T00:09:26.228Z,11.87
2022-10-28T00:11:55.110Z,14.33
2022-10-28T00:14:23.415Z,11.50
2022-10-28T00:16:53.611Z,9.93
2022-10-28T00:19:22.027Z,9.30
2022-10-28T00:21:52.610Z,14.73
2022-10-28T00:24:21.221Z,11.93
2022-10-28T00:26:49.820Z,10.47
2022-10-28T00:29:21.101Z,11.70
2022-10-28T00:31:51.156Z,16.40
2022-10-28T00:34:24.361Z,14.30
2022-10-28T00:36:58.770Z,11.23
2022-10-28T00:39:30.325Z,11.77
2022-10-28T00:42:03.878Z,12.37
2022-10-28T00:44:57.316Z,10.77
2022-10-28T00:47:45.804Z,13.33
2022-10-28T00:50:21.701Z,14.20
2022-10-28T00:52:55.463Z,13.97
2022-10-28T00:55:25.327Z,12.80
2022-10-28T00:57:58.505Z,9.67
2022-10-28T01:00:29.370Z,13.30
2022-10-28T01:02:59.486Z,13.20
2022-10-28T01:05:32.883Z,11.80
2022-10-28T01:08:04.542Z,10.60
2022-10-28T01:10:59.694Z,11.27
2022-10-28T01:13:40.285Z,10.63
2022-10-28T01:16:23.635Z,11.17
2022-10-28T01:19:06.202Z,15.10
2022-10-28T01:21:56.094Z,13.37
2022-10-28T01:24:50.489Z,13.13
2022-10-28T01:27:54.584Z,13.13
2022-10-28T01:30:26.855Z,11.67
2022-10-28T01:33:08.148Z,13.57
2022-10-28T01:35:45.780Z,12.83
2022-10-28T01:38:29.074Z,14.90
2022-10-28T01:41:05.726Z,10.03
2022-10-28T01:43:42.091Z,14.47
2022-10-28T01:46:16.365Z,16.90
2022-10-28T01:48:50.589Z,15.30
2022-10-28T01:51:25.009Z,14.77
2022-10-28T01:53:58.734Z,12.70
2022-10-28T01:56:32.714Z,12.00
2022-10-28T01:59:03.733Z,11.33
2022-10-28T02:01:34.969Z,10.47
2022-10-28T02:04:07.774Z,14.07
2022-10-28T02:06:36.526Z,13.50
2022-10-28T02:09:26.497Z,12.73
2022-10-28T02:12:18.747Z,12.20
2022-10-28T02:15:27.420Z,6.90
2022-10-28T02:18:13.454Z,10.83
2022-10-28T02:20:51.892Z,11.30
2022-10-28T02:23:27.639Z,10.77
2022-10-28T02:26:01.849Z,18.87
2022-10-28T02:28:40.422Z,12.03
2022-10-28T02:31:24.175Z,7.87
2022-10-28T02:33:58.579Z,12.50
2022-10-28T02:36:35.785Z,10.80
2022-10-28T02:39:08.806Z,11.27
2022-10-28T02:41:43.170Z,12.47
2022-10-28T02:44:16.542Z,13.03
2022-10-28T02:46:48.730Z,10.03
2022-10-28T02:49:17.363Z,12.37
2022-10-28T02:51:50.877Z,9.70
2022-10-28T02:54:27.617Z,10.97
2022-10-28T02:57:04.338Z,10.57
2022-10-28T02:59:32.907Z,10.23
2022-10-28T03:02:01.695Z,9.47
2022-10-28T03:04:30.147Z,11.80
2022-10-28T03:07:00.146Z,10.23
2022-10-28T03:09:28.600Z,11.47
2022-10-28T03:11:57.064Z,11.30
2022-10-28T03:14:25.258Z,10.27
2022-10-28T03:16:53.625Z,11.93
2022-10-28T03:19:21.913Z,13.13
2022-10-28T03:21:50.555Z,14.67
2022-10-28T03:24:22.860Z,16.67
2022-10-28T03:26:51.670Z,11.57
2022-10-28T03:29:20.415Z,10.50
2022-10-28T03:31:49.506Z,9.50
2022-10-28T03:34:19.219Z,8.97
2022-10-28T03:36:47.994Z,10.43
2022-10-28T03:39:18.225Z,10.10
2022-10-28T03:41:48.316Z,10.07
2022-10-28T03:44:17.558Z,16.23
2022-10-28T03:46:46.202Z,10.77
2022-10-28T03:49:14.687Z,9.20
2022-10-28T03:51:43.175Z,10.50
2022-10-28T03:54:11.657Z,10.53
2022-10-28T03:56:40.783Z,14.93
2022-10-28T03:59:14.153Z,13.13
2022-10-28T04:01:45.154Z,11.10
2022-10-28T04:04:14.267Z,13.17
2022-10-28T04:06:42.950Z,11.37
2022-10-28T04:09:11.872Z,12.90
2022-10-28T04:11:40.095Z,10.17
2022-10-28T04:14:08.403Z,12.43
2022-10-28T04:16:39.927Z,9.37
2022-10-28T04:19:08.169Z,12.80
2022-10-28T04:21:36.590Z,15.60
2022-10-28T04:24:05.193Z,13.07
2022-10-28T04:26:34.472Z,13.87
2022-10-28T04:29:02.799Z,14.53
2022-10-28T04:31:32.129Z,18.97
2022-10-28T04:34:02.204Z,9.87
2022-10-28T04:36:30.729Z,9.00
2022-10-28T04:38:58.927Z,9.87
2022-10-28T04:41:28.019Z,10.83
2022-10-28T04:43:56.802Z,12.37
2022-10-28T04:46:26.285Z,13.13
2022-10-28T04:48:54.424Z,13.37
2022-10-28T04:51:24.829Z,14.20
2022-10-28T04:53:53.557Z,14.23
2022-10-28T04:56:22.243Z,13.00
2022-10-28T04:58:50.914Z,8.17
2022-10-28T05:01:19.655Z,9.63
2022-10-28T05:03:48.297Z,9.13
2022-10-28T05:06:17.287Z,9.83
2022-10-28T05:08:48.499Z,12.33
2022-10-28T05:11:16.994Z,12.57
2022-10-28T05:13:45.757Z,13.03
2022-10-28T05:16:18.016Z,12.70
2022-10-28T05:18:47.425Z,16.10
2022-10-28T05:21:15.584Z,13.77
2022-10-28T05:23:44.059Z,10.63
2022-10-28T05:26:14.970Z,9.43
2022-10-28T05:28:43.927Z,7.63
2022-10-28T05:31:12.282Z,14.00
2022-10-28T05:33:41.267Z,9.13
2022-10-28T05:36:09.873Z,12.43
2022-10-28T05:38:40.304Z,18.23
2022-10-28T05:41:12.517Z,10.23
2022-10-28T05:43:42.572Z,12.00
2022-10-28T05:46:11.349Z,9.47
2022-10-28T05:48:42.746Z,13.70
2022-10-28T05:51:11.154Z,9.40
2022-10-28T05:53:41.778Z,12.27
2022-10-28T05:56:10.595Z,11.13
2022-10-28T05:58:39.098Z,12.43
2022-10-28T06:01:09.989Z,12.13
2022-10-28T06:03:38.549Z,8.80
2022-10-28T06:06:11.396Z,10.97
2022-10-28T06:08:39.635Z,9.40
2022-10-28T06:11:06.450Z,12.47
2022-10-28T06:13:35.701Z,11.67
2022-10-28T06:16:04.311Z,10.53
2022-10-28T06:18:34.111Z,16.80
2022-10-28T06:21:02.446Z,14.17
2022-10-28T06:23:31.131Z,16.40
2022-10-28T06:26:01.061Z,17.23
2022-10-28T06:28:29.677Z,15.23
2022-10-28T06:31:02.085Z,13.80
2022-10-28T06:33:30.392Z,23.10
2022-10-28T06:36:00.846Z,21.53
2022-10-28T06:38:29.905Z,38.87
2022-10-28T06:40:59.361Z,34.83
2022-10-28T06:43:27.934Z,27.47
2022-10-28T06:45:56.412Z,20.47
2022-10-28T06:48:26.399Z,22.77
2022-10-28T06:50:57.996Z,19.00
2022-10-28T06:53:27.996Z,16.00
2022-10-28T06:55:57.225Z,17.00
2022-10-28T06:58:26.606Z,13.13
2022-10-28T07:00:55.617Z,14.10
2022-10-28T07:03:24.357Z,22.17
2022-10-28T07:05:54.390Z,20.53
2022-10-28T07:08:22.491Z,13.87
2022-10-28T07:10:57.515Z,11.43
2022-10-28T07:13:26.323Z,12.70
2022-10-28T07:15:55.231Z,11.83
2022-10-28T07:18:24.105Z,12.90
2022-10-28T07:20:52.623Z,13.07
2022-10-28T07:23:21.687Z,15.83
2022-10-28T07:25:54.621Z,14.07
2022-10-28T07:28:26.805Z,9.97
2022-10-28T07:30:55.326Z,12.03
2022-10-28T07:33:23.797Z,11.03
2022-10-28T07:35:52.225Z,10.50
2022-10-28T07:38:20.575Z,16.17
2022-10-28T07:40:48.904Z,15.63
2022-10-28T07:43:17.331Z,61.97
2022-10-28T07:45:47.069Z,54.23
2022-10-28T07:48:16.144Z,19.83
2022-10-28T07:50:44.881Z,14.00
2022-10-28T07:53:13.257Z,13.10
2022-10-28T07:55:41.690Z,16.57
2022-10-28T07:58:10.101Z,17.07
2022-10-28T08:00:38.657Z,10.13
2022-10-28T08:03:14.317Z,12.30
2022-10-28T08:05:42.672Z,13.57
2022-10-28T08:08:10.868Z,17.03
2022-10-28T08:10:39.651Z,10.00
2022-10-28T08:13:08.280Z,14.10
2022-10-28T08:15:36.381Z,13.97
2022-10-28T08:18:04.510Z,17.70
2022-10-28T08:20:34.386Z,35.83
2022-10-28T08:23:05.296Z,55.60
2022-10-28T08:25:35.884Z,43.93
2022-10-28T08:28:04.698Z,31.57
2022-10-28T08:30:40.312Z,25.80
2022-10-28T08:33:22.225Z,93.27
2022-10-28T08:35:55.104Z,170.53
2022-10-28T08:38:23.899Z,81.20
2022-10-28T08:40:58.928Z,37.57
2022-10-28T08:43:52.910Z,15.70
2022-10-28T08:46:34.778Z,17.10
2022-10-28T08:49:04.753Z,15.97
2022-10-28T08:51:43.624Z,24.60
2022-10-28T08:54:18.970Z,14.37
2022-10-28T08:56:51.081Z,16.00
2022-10-28T08:59:24.088Z,10.47
2022-10-28T09:01:58.280Z,9.20
2022-10-28T09:04:37.335Z,13.80
2022-10-28T09:07:15.723Z,10.50
2022-10-28T09:09:45.142Z,13.10
2022-10-28T09:12:26.198Z,11.03
2022-10-28T09:15:11.440Z,11.50
2022-10-28T09:17:50.071Z,12.63
2022-10-28T09:20:21.906Z,10.90
2022-10-28T09:22:58.277Z,11.03
2022-10-28T09:25:34.636Z,13.00
2022-10-28T09:28:22.357Z,14.27
2022-10-28T09:30:59.901Z,11.73
2022-10-28T09:33:51.041Z,8.50
2022-10-28T09:36:27.182Z,9.17
2022-10-28T09:39:02.288Z,8.57
2022-10-28T09:41:34.676Z,12.20
2022-10-28T09:44:10.073Z,8.10
2022-10-28T09:46:40.651Z,10.90
2022-10-28T09:49:18.802Z,13.23
2022-10-28T09:51:51.851Z,12.03
2022-10-28T09:54:30.302Z,8.07
2022-10-28T09:56:58.548Z,10.57
2022-10-28T09:59:27.040Z,11.13
2022-10-28T10:01:56.102Z,9.87
2022-10-28T10:04:26.780Z,14.47
2022-10-28T10:06:59.485Z,10.23
2022-10-28T10:09:36.019Z,9.73
2022-10-28T10:12:07.871Z,9.17
2022-10-28T10:14:42.191Z,16.50
2022-10-28T10:17:16.539Z,9.77
2022-10-28T10:20:03.336Z,11.73
2022-10-28T10:22:34.432Z,9.90
2022-10-28T10:25:05.318Z,15.80
2022-10-28T10:27:33.572Z,8.30
2022-10-28T10:30:02.410Z,14.43
2022-10-28T10:32:33.938Z,8.47
2022-10-28T10:35:06.890Z,11.60
2022-10-28T10:37:37.616Z,8.77
2022-10-28T10:40:19.815Z,11.10
2022-10-28T10:43:09.815Z,8.90
2022-10-28T10:45:37.609Z,10.13
2022-10-28T10:48:13.405Z,12.63
2022-10-28T10:50:42.866Z,9.43
2022-10-28T10:53:22.096Z,9.40
2022-10-28T10:55:55.246Z,9.90
2022-10-28T10:58:26.021Z,8.97
2022-10-28T11:00:57.246Z,9.70
2022-10-28T11:03:28.867Z,11.97
2022-10-28T11:06:21.939Z,10.90
2022-10-28T11:08:48.226Z,13.77
2022-10-28T11:11:24.770Z,12.67
2022-10-28T11:14:06.001Z,10.77
2022-10-28T11:16:34.587Z,10.60
2022-10-28T11:19:20.813Z,6.57
2022-10-28T11:22:02.707Z,12.53
2022-10-28T11:24:50.774Z,13.23
2022-10-28T11:27:33.098Z,9.50
2022-10-28T11:30:02.579Z,13.67
2022-10-28T11:32:54.680Z,23.50
2022-10-28T11:35:44.242Z,10.83
2022-10-28T11:38:24.325Z,16.20
2022-10-28T11:41:07.366Z,16.97
2022-10-28T11:43:47.667Z,10.97
2022-10-28T11:46:32.298Z,14.67
2022-10-28T11:49:38.668Z,15.13
2022-10-28T11:52:19.618Z,13.30
2022-10-28T11:55:03.447Z,13.83
2022-10-28T11:57:45.982Z,11.00
2022-10-28T12:00:50.216Z,16.00
2022-10-28T12:03:42.273Z,12.40
2022-10-28T12:06:17.663Z,12.70
2022-10-28T12:09:01.230Z,23.23
2022-10-28T12:11:41.088Z,14.57
2022-10-28T12:14:22.348Z,11.43
2022-10-28T12:17:00.733Z,23.40
2022-10-28T12:19:43.644Z,13.63
2022-10-28T12:22:18.065Z,12.43
2022-10-28T12:24:48.488Z,13.93
2022-10-28T12:27:23.696Z,26.30
2022-10-28T12:30:01.295Z,9.03
2022-10-28T12:32:34.445Z,11.57
2022-10-28T12:35:11.876Z,11.10
2022-10-28T12:37:47.790Z,8.50
2022-10-28T12:40:20.895Z,12.43
2022-10-28T12:42:59.527Z,9.00
2022-10-28T12:45:31.498Z,17.87
2022-10-28T12:48:06.583Z,10.97
2022-10-28T12:50:41.687Z,14.17
2022-10-28T12:53:26.189Z,16.27
2022-10-28T12:55:59.539Z,10.10
2022-10-28T12:58:34.138Z,8.50
2022-10-28T13:01:04.116Z,8.10
2022-10-28T13:03:32.805Z,11.60
2022-10-28T13:06:24.199Z,10.87
2022-10-28T13:09:20.667Z,10.07
2022-10-28T13:12:24.927Z,11.40
2022-10-28T13:15:19.333Z,12.20
2022-10-28T13:18:05.296Z,11.30
2022-10-28T13:20:48.088Z,10.03
2022-10-28T13:23:42.160Z,17.60
2022-10-28T13:26:23.056Z,15.35
2022-10-28T13:28:54.018Z,9.87
2022-10-28T13:31:22.747Z,11.13
2022-10-28T13:33:56.270Z,12.20
2022-10-28T13:36:28.780Z,12.37
2022-10-28T13:39:02.054Z,11.00
2022-10-28T13:41:36.529Z,9.03
2022-10-28T13:44:24.529Z,9.73
2022-10-28T13:47:34.856Z,15.50
2022-10-28T13:50:17.283Z,8.83
2022-10-28T13:52:46.943Z,10.00
2022-10-28T13:55:44.207Z,12.47
2022-10-28T13:58:24.045Z,11.43
2022-10-28T14:00:53.651Z,7.33
2022-10-28T14:03:25.195Z,12.27
2022-10-28T14:05:57.979Z,14.17
2022-10-28T14:08:31.195Z,9.95
2022-10-28T14:11:06.638Z,9.60
2022-10-28T14:13:38.852Z,12.30
2022-10-28T14:16:23.772Z,8.57
2022-10-28T14:19:06.108Z,10.83
2022-10-28T14:21:48.248Z,13.57
2022-10-28T14:24:34.453Z,28.92
2022-10-28T14:27:34.584Z,27.95
2022-10-28T14:30:23.298Z,11.50
2022-10-28T14:33:20.472Z,7.57
2022-10-28T14:35:55.642Z,12.57
2022-10-28T14:39:10.739Z,8.50
2022-10-28T14:42:04.744Z,13.63
2022-10-28T14:45:02.791Z,10.43
2022-10-28T14:48:09.360Z,10.05
2022-10-28T14:50:42.340Z,11.15
2022-10-28T14:53:23.436Z,6.75
2022-10-28T14:56:00.618Z,11.63
2022-10-28T14:58:32.075Z,7.83
2022-10-28T15:01:29.141Z,12.37
2022-10-28T15:04:02.325Z,10.63
2022-10-28T15:06:38.187Z,8.80
2022-10-28T15:09:14.888Z,9.27
2022-10-28T15:11:47.212Z,11.53
2022-10-28T15:14:25.080Z,11.30
2022-10-28T15:16:57.176Z,8.83
2022-10-28T15:19:28.777Z,9.30
2022-10-28T15:22:07.048Z,8.63
2022-10-28T15:24:37.177Z,9.40
2022-10-28T15:27:08.653Z,18.17
2022-10-28T15:29:42.211Z,7.43
2022-10-28T15:32:29.526Z,10.47
2022-10-28T15:34:59.604Z,10.00
2022-10-28T15:37:32.843Z,10.63
2022-10-28T15:40:23.736Z,13.23
2022-10-28T15:42:55.127Z,10.37
2022-10-28T15:45:27.230Z,11.30
2022-10-28T15:47:59.150Z,11.83
2022-10-28T15:50:30.914Z,5.97
2022-10-28T15:53:34.860Z,7.80
2022-10-28T15:56:26.007Z,10.70
2022-10-28T15:59:14.501Z,14.00
2022-10-28T16:01:43.663Z,14.07
2022-10-28T16:04:47.161Z,11.50
2022-10-28T16:07:15.613Z,14.47
2022-10-28T16:09:46.438Z,11.33
2022-10-28T16:12:19.627Z,14.23
2022-10-28T16:14:55.335Z,12.80
2022-10-28T16:17:27.316Z,10.67
2022-10-28T16:20:00.641Z,12.93
2022-10-28T16:22:32.440Z,11.43
2022-10-28T16:25:02.326Z,11.83
2022-10-28T16:27:33.698Z,14.37
2022-10-28T16:30:02.187Z,14.03
2022-10-28T16:32:38.421Z,9.67
2022-10-28T16:35:16.889Z,16.97
2022-10-28T16:37:49.360Z,12.40
2022-10-28T16:40:45.630Z,13.80
2022-10-28T16:43:07.939Z,16.00
2022-10-28T16:45:36.236Z,13.07
2022-10-28T16:48:04.536Z,12.30
2022-10-28T16:50:34.392Z,11.30
2022-10-28T16:53:03.119Z,16.57
2022-10-28T16:55:31.736Z,13.07
2022-10-28T16:58:01.545Z,16.97
2022-10-28T17:00:30.172Z,14.67
2022-10-28T17:02:58.917Z,14.87
2022-10-28T17:05:27.416Z,13.53
2022-10-28T17:07:58.508Z,14.00
2022-10-28T17:10:30.261Z,16.93
2022-10-28T17:12:59.159Z,9.93
2022-10-28T17:15:27.538Z,13.60
2022-10-28T17:17:56.061Z,15.27
2022-10-28T17:20:25.099Z,18.70
2022-10-28T17:22:53.624Z,12.77
2022-10-28T17:25:23.921Z,13.23
2022-10-28T17:27:54.212Z,14.83
2022-10-28T17:30:23.560Z,12.57
2022-10-28T17:32:53.984Z,16.87
2022-10-28T17:35:25.398Z,12.10
2022-10-28T17:37:58.512Z,18.90
2022-10-28T17:40:32.261Z,12.60
2022-10-28T17:43:02.516Z,11.87
2022-10-28T17:45:30.873Z,15.50
2022-10-28T17:48:00.939Z,15.10
2022-10-28T17:50:29.207Z,13.93
2022-10-28T17:52:58.449Z,13.53
2022-10-28T17:55:28.916Z,13.80
2022-10-28T17:57:58.568Z,11.17
2022-10-28T18:00:27.471Z,11.00
2022-10-28T18:02:57.666Z,19.63
2022-10-28T18:05:26.240Z,22.57
2022-10-28T18:07:56.984Z,17.13
2022-10-28T18:10:25.884Z,12.10
2022-10-28T18:12:56.320Z,15.23
2022-10-28T18:15:25.114Z,11.67
2022-10-28T18:17:53.862Z,12.77
2022-10-28T18:20:22.327Z,17.93
2022-10-28T18:22:50.553Z,13.30
2022-10-28T18:25:19.026Z,17.03
2022-10-28T18:27:47.384Z,16.27
2022-10-28T18:30:17.262Z,10.90
2022-10-28T18:32:45.679Z,10.93
2022-10-28T18:35:14.783Z,13.80
2022-10-28T18:37:43.488Z,13.73
2022-10-28T18:40:12.661Z,19.90
2022-10-28T18:42:41.603Z,17.30
2022-10-28T18:45:10.988Z,14.63
2022-10-28T18:47:40.661Z,12.43
2022-10-28T18:50:09.831Z,13.97
2022-10-28T18:52:38.211Z,17.77
2022-10-28T18:55:07.659Z,15.00
2022-10-28T18:57:36.183Z,11.60
2022-10-28T19:00:23.422Z,20.40
2022-10-28T19:05:22.660Z,17.40
2022-10-28T19:07:50.857Z,17.10
2022-10-28T19:10:20.309Z,14.30
2022-10-28T19:12:52.791Z,14.07
2022-10-28T19:15:23.901Z,17.43
2022-10-28T19:17:55.884Z,12.00
2022-10-28T19:20:28.394Z,11.40
2022-10-28T19:22:57.390Z,12.90
2022-10-28T19:25:26.095Z,13.50
2022-10-28T19:27:54.959Z,17.83
2022-10-28T19:30:23.280Z,14.23
2022-10-28T19:32:51.464Z,11.40
2022-10-28T19:35:21.619Z,13.43
2022-10-28T19:37:54.238Z,16.07
2022-10-28T19:40:22.730Z,11.20
2022-10-28T19:42:54.702Z,13.37
2022-10-28T19:45:23.535Z,12.87
2022-10-28T19:47:52.361Z,16.17
2022-10-28T19:50:22.338Z,15.00
2022-10-28T19:52:52.346Z,18.60
2022-10-28T19:55:21.249Z,12.90
2022-10-28T19:57:51.981Z,16.20
2022-10-28T20:00:22.167Z,15.53
2022-10-28T20:02:50.857Z,17.60
2022-10-28T20:05:19.574Z,13.37
2022-10-28T20:07:57.433Z,14.13
2022-10-28T20:10:26.011Z,15.30
2022-10-28T20:12:54.552Z,14.73
2022-10-28T20:15:25.073Z,10.50
2022-10-28T20:17:53.160Z,16.87
2022-10-28T20:20:21.541Z,13.33
2022-10-28T20:22:51.440Z,10.37
2022-10-28T20:25:19.843Z,11.67
2022-10-28T20:27:48.268Z,16.53
2022-10-28T20:30:16.817Z,20.67
2022-10-28T20:32:45.671Z,13.60
2022-10-28T20:35:14.153Z,13.63
2022-10-28T20:37:42.475Z,16.33
2022-10-28T20:40:14.150Z,14.30
2022-10-28T20:42:43.104Z,16.47
2022-10-28T20:45:12.045Z,14.07
2022-10-28T20:47:40.528Z,19.70
2022-10-28T20:50:10.287Z,13.27
2022-10-28T20:52:38.760Z,16.50
2022-10-28T20:55:08.316Z,13.43
2022-10-28T20:57:38.597Z,11.53
2022-10-28T21:00:08.299Z,18.30
2022-10-28T21:02:38.272Z,12.73
2022-10-28T21:05:07.786Z,15.07
2022-10-28T21:07:36.290Z,15.40
2022-10-28T21:10:04.585Z,12.93
2022-10-28T21:12:33.260Z,17.90
2022-10-28T21:15:04.086Z,12.77
2022-10-28T21:17:32.321Z,14.03
2022-10-28T21:22:35.362Z,14.20
2022-10-28T21:25:06.237Z,15.77
2022-10-28T21:27:34.654Z,14.50
2022-10-28T21:30:04.948Z,11.90
2022-10-28T21:32:37.299Z,10.43
2022-10-28T21:35:06.617Z,15.80
2022-10-28T21:37:35.495Z,11.60
2022-10-28T21:40:03.939Z,13.27
2022-10-28T21:42:32.517Z,13.83
2022-10-28T21:45:00.903Z,13.10
2022-10-28T21:47:33.184Z,18.13
2022-10-28T21:50:02.235Z,19.07
2022-10-28T21:52:30.694Z,12.73
2022-10-28T21:54:59.534Z,15.43
2022-10-28T21:57:34.944Z,15.90
2022-10-28T22:00:04.063Z,15.53
2022-10-28T22:02:34.224Z,14.40
2022-10-28T22:05:02.818Z,14.33
2022-10-28T22:07:31.962Z,13.37
2022-10-28T22:10:00.369Z,16.23
2022-10-28T22:12:31.035Z,20.67
2022-10-28T22:14:59.886Z,14.20
2022-10-28T22:17:29.605Z,10.30
2022-10-28T22:19:59.235Z,13.80
2022-10-28T22:22:30.300Z,15.23
2022-10-28T22:24:58.460Z,26.67
2022-10-28T22:27:26.667Z,28.37
2022-10-28T22:29:55.292Z,16.67
2022-10-28T22:32:23.454Z,16.00
2022-10-28T22:34:51.822Z,15.40
2022-10-28T22:37:21.698Z,12.83
2022-10-28T22:39:50.589Z,11.60
2022-10-28T22:42:19.338Z,16.33
2022-10-28T22:44:49.191Z,10.10
2022-10-28T22:47:20.471Z,12.33
2022-10-28T22:49:51.077Z,15.47
2022-10-28T22:52:22.402Z,11.90
2022-10-28T22:54:52.272Z,15.77
2022-10-28T22:57:20.850Z,15.80
2022-10-28T22:59:49.023Z,14.13
2022-10-28T23:02:17.355Z,17.73
2022-10-28T23:04:45.663Z,12.33
2022-10-28T23:07:14.027Z,15.30
2022-10-28T23:09:44.278Z,13.77
2022-10-28T23:12:12.655Z,17.50
2022-10-28T23:14:41.187Z,13.23
2022-10-28T23:17:10.328Z,12.67
2022-10-28T23:19:38.906Z,15.40
2022-10-28T23:22:07.930Z,17.43
2022-10-28T23:24:37.195Z,19.73
2022-10-28T23:27:08.527Z,16.40
2022-10-28T23:29:36.845Z,19.00
2022-10-28T23:32:06.235Z,15.40
2022-10-28T23:34:34.806Z,15.67
2022-10-28T23:37:05.689Z,14.93
2022-10-28T23:39:34.930Z,12.83
2022-10-28T23:42:03.238Z,17.67
2022-10-28T23:44:34.287Z,14.53
2022-10-28T23:47:03.336Z,9.87
2022-10-28T23:49:31.861Z,18.90
2022-10-28T23:52:01.113Z,9.93
2022-10-28T23:54:29.981Z,14.93
2022-10-28T23:56:58.118Z,13.77
2022-10-28T23:59:26.436Z,12.20
